sensor_id;sensor_type;location;lat;lon;timestamp;temperature;humidity
24260;DHT22;12384;48.112;18.418;2023-03-14T00:00:32;7.20;50.50
24260;DHT22;12384;48.112;18.418;2023-03-14T00:03:01;7.20;50.50
24260;DHT22;12384;48.112;18.418;2023-03-14T00:05:29;7.10;50.50
24260;DHT22;12384;48.112;18.418;2023-03-14T00:07:58;7.10;51.20
24260;DHT22;12384;48.112;18.418;2023-03-14T00:10:26;7.10;50.70
24260;DHT22;12384;48.112;18.418;2023-03-14T00:12:56;7.00;50.60
24260;DHT22;12384;48.112;18.418;2023-03-14T00:15:25;7.00;50.70
24260;DHT22;12384;48.112;18.418;2023-03-14T00:17:54;6.90;50.60
24260;DHT22;12384;48.112;18.418;2023-03-14T00:20:25;6.90;50.60
24260;DHT22;12384;48.112;18.418;2023-03-14T00:22:54;6.90;50.60
24260;DHT22;12384;48.112;18.418;2023-03-14T00:25:22;6.90;50.60
24260;DHT22;12384;48.112;18.418;2023-03-14T00:27:51;6.80;50.50
24260;DHT22;12384;48.112;18.418;2023-03-14T00:30:21;6.80;50.50
24260;DHT22;12384;48.112;18.418;2023-03-14T00:32:50;6.80;50.60
24260;DHT22;12384;48.112;18.418;2023-03-14T00:35:18;6.80;50.60
24260;DHT22;12384;48.112;18.418;2023-03-14T00:37:47;6.80;50.60
24260;DHT22;12384;48.112;18.418;2023-03-14T00:40:15;6.70;50.50
24260;DHT22;12384;48.112;18.418;2023-03-14T00:42:44;6.70;50.60
24260;DHT22;12384;48.112;18.418;2023-03-14T00:45:12;6.70;50.60
24260;DHT22;12384;48.112;18.418;2023-03-14T00:47:42;6.70;50.50
24260;DHT22;12384;48.112;18.418;2023-03-14T00:50:16;6.60;50.40
24260;DHT22;12384;48.112;18.418;2023-03-14T00:52:45;6.60;50.30
24260;DHT22;12384;48.112;18.418;2023-03-14T00:55:15;6.60;50.30
24260;DHT22;12384;48.112;18.418;2023-03-14T00:57:44;6.60;50.30
24260;DHT22;12384;48.112;18.418;2023-03-14T01:00:13;6.60;50.30
24260;DHT22;12384;48.112;18.418;2023-03-14T01:02:43;6.60;50.20
24260;DHT22;12384;48.112;18.418;2023-03-14T01:05:12;6.60;50.20
24260;DHT22;12384;48.112;18.418;2023-03-14T01:07:42;6.60;50.20
24260;DHT22;12384;48.112;18.418;2023-03-14T01:10:11;6.50;50.20
24260;DHT22;12384;48.112;18.418;2023-03-14T01:12:40;6.60;50.20
24260;DHT22;12384;48.112;18.418;2023-03-14T01:15:11;6.50;50.10
24260;DHT22;12384;48.112;18.418;2023-03-14T01:17:39;6.50;50.10
24260;DHT22;12384;48.112;18.418;2023-03-14T01:20:12;6.50;50.00
24260;DHT22;12384;48.112;18.418;2023-03-14T01:22:42;6.50;50.00
24260;DHT22;12384;48.112;18.418;2023-03-14T01:25:14;6.50;50.10
24260;DHT22;12384;48.112;18.418;2023-03-14T01:27:43;6.50;50.10
24260;DHT22;12384;48.112;18.418;2023-03-14T01:30:12;6.50;50.10
24260;DHT22;12384;48.112;18.418;2023-03-14T01:32:41;6.50;50.10
24260;DHT22;12384;48.112;18.418;2023-03-14T01:35:11;6.50;50.10
24260;DHT22;12384;48.112;18.418;2023-03-14T01:37:40;6.50;50.20
24260;DHT22;12384;48.112;18.418;2023-03-14T01:40:13;6.50;50.10
24260;DHT22;12384;48.112;18.418;2023-03-14T01:42:54;6.50;50.20
24260;DHT22;12384;48.112;18.418;2023-03-14T01:48:37;6.50;50.20
24260;DHT22;12384;48.112;18.418;2023-03-14T01:51:11;6.50;50.20
24260;DHT22;12384;48.112;18.418;2023-03-14T01:53:43;6.50;50.20
24260;DHT22;12384;48.112;18.418;2023-03-14T01:56:14;6.50;50.30
24260;DHT22;12384;48.112;18.418;2023-03-14T01:58:45;6.50;50.20
24260;DHT22;12384;48.112;18.418;2023-03-14T02:01:18;6.50;50.20
24260;DHT22;12384;48.112;18.418;2023-03-14T02:03:52;6.60;50.30
24260;DHT22;12384;48.112;18.418;2023-03-14T02:06:26;6.60;50.40
24260;DHT22;12384;48.112;18.418;2023-03-14T02:09:00;6.60;50.30
24260;DHT22;12384;48.112;18.418;2023-03-14T02:11:33;6.70;50.40
24260;DHT22;12384;48.112;18.418;2023-03-14T02:14:05;6.70;50.90
24260;DHT22;12384;48.112;18.418;2023-03-14T02:16:53;6.70;50.30
24260;DHT22;12384;48.112;18.418;2023-03-14T02:22:56;6.70;50.30
24260;DHT22;12384;48.112;18.418;2023-03-14T02:25:35;6.70;50.30
24260;DHT22;12384;48.112;18.418;2023-03-14T02:28:09;6.80;50.50
24260;DHT22;12384;48.112;18.418;2023-03-14T02:30:39;6.80;50.60
24260;DHT22;12384;48.112;18.418;2023-03-14T02:33:10;6.80;50.50
24260;DHT22;12384;48.112;18.418;2023-03-14T02:35:45;6.90;50.50
24260;DHT22;12384;48.112;18.418;2023-03-14T02:38:20;6.90;50.50
24260;DHT22;12384;48.112;18.418;2023-03-14T02:40:51;6.90;50.50
24260;DHT22;12384;48.112;18.418;2023-03-14T02:43:21;6.90;50.50
24260;DHT22;12384;48.112;18.418;2023-03-14T02:45:56;7.00;50.70
24260;DHT22;12384;48.112;18.418;2023-03-14T02:48:27;7.00;50.70
24260;DHT22;12384;48.112;18.418;2023-03-14T02:50:59;7.00;50.70
24260;DHT22;12384;48.112;18.418;2023-03-14T02:53:31;7.00;50.70
24260;DHT22;12384;48.112;18.418;2023-03-14T02:56:05;7.10;50.80
24260;DHT22;12384;48.112;18.418;2023-03-14T02:58:38;7.10;50.70
24260;DHT22;12384;48.112;18.418;2023-03-14T03:01:18;7.10;50.70
24260;DHT22;12384;48.112;18.418;2023-03-14T03:03:47;7.10;50.50
24260;DHT22;12384;48.112;18.418;2023-03-14T03:06:15;7.10;50.30
24260;DHT22;12384;48.112;18.418;2023-03-14T03:08:44;7.10;50.10
24260;DHT22;12384;48.112;18.418;2023-03-14T03:11:12;7.10;49.90
24260;DHT22;12384;48.112;18.418;2023-03-14T03:13:42;7.10;49.60
24260;DHT22;12384;48.112;18.418;2023-03-14T03:16:13;7.10;49.60
24260;DHT22;12384;48.112;18.418;2023-03-14T03:18:42;7.00;49.70
24260;DHT22;12384;48.112;18.418;2023-03-14T03:21:11;7.00;49.80
24260;DHT22;12384;48.112;18.418;2023-03-14T03:23:42;7.00;50.00
24260;DHT22;12384;48.112;18.418;2023-03-14T03:26:10;7.00;50.10
24260;DHT22;12384;48.112;18.418;2023-03-14T03:28:39;7.00;50.20
24260;DHT22;12384;48.112;18.418;2023-03-14T03:31:10;7.00;50.20
24260;DHT22;12384;48.112;18.418;2023-03-14T03:33:39;7.00;50.20
24260;DHT22;12384;48.112;18.418;2023-03-14T03:36:08;7.00;50.20
24260;DHT22;12384;48.112;18.418;2023-03-14T03:38:39;7.00;50.20
24260;DHT22;12384;48.112;18.418;2023-03-14T03:41:08;7.00;50.20
24260;DHT22;12384;48.112;18.418;2023-03-14T03:43:37;7.00;50.20
24260;DHT22;12384;48.112;18.418;2023-03-14T03:46:09;6.90;50.10
24260;DHT22;12384;48.112;18.418;2023-03-14T03:48:38;6.90;50.20
24260;DHT22;12384;48.112;18.418;2023-03-14T03:51:07;6.90;50.30
24260;DHT22;12384;48.112;18.418;2023-03-14T03:53:39;6.80;50.40
24260;DHT22;12384;48.112;18.418;2023-03-14T03:56:11;6.80;50.50
24260;DHT22;12384;48.112;18.418;2023-03-14T03:58:41;6.80;50.60
24260;DHT22;12384;48.112;18.418;2023-03-14T04:01:11;6.90;50.70
24260;DHT22;12384;48.112;18.418;2023-03-14T04:03:40;6.90;50.70
24260;DHT22;12384;48.112;18.418;2023-03-14T04:06:10;6.90;50.70
24260;DHT22;12384;48.112;18.418;2023-03-14T04:08:42;6.90;50.70
24260;DHT22;12384;48.112;18.418;2023-03-14T04:11:39;6.90;50.70
24260;DHT22;12384;48.112;18.418;2023-03-14T04:14:20;6.90;50.80
24260;DHT22;12384;48.112;18.418;2023-03-14T04:16:59;6.90;50.80
24260;DHT22;12384;48.112;18.418;2023-03-14T04:19:29;7.00;50.90
24260;DHT22;12384;48.112;18.418;2023-03-14T04:21:58;7.00;50.80
24260;DHT22;12384;48.112;18.418;2023-03-14T04:24:32;7.00;50.70
24260;DHT22;12384;48.112;18.418;2023-03-14T04:27:02;7.00;50.60
24260;DHT22;12384;48.112;18.418;2023-03-14T04:29:33;7.10;50.60
24260;DHT22;12384;48.112;18.418;2023-03-14T04:32:03;7.10;50.50
24260;DHT22;12384;48.112;18.418;2023-03-14T04:34:32;7.10;50.50
24260;DHT22;12384;48.112;18.418;2023-03-14T04:37:03;7.10;50.50
24260;DHT22;12384;48.112;18.418;2023-03-14T04:39:36;7.10;50.50
24260;DHT22;12384;48.112;18.418;2023-03-14T04:42:12;7.10;50.50
24260;DHT22;12384;48.112;18.418;2023-03-14T04:44:40;7.10;51.00
24260;DHT22;12384;48.112;18.418;2023-03-14T04:47:13;7.10;50.40
24260;DHT22;12384;48.112;18.418;2023-03-14T04:49:43;7.10;50.40
24260;DHT22;12384;48.112;18.418;2023-03-14T04:52:14;7.10;50.40
24260;DHT22;12384;48.112;18.418;2023-03-14T04:54:43;7.10;50.40
24260;DHT22;12384;48.112;18.418;2023-03-14T04:57:11;7.10;50.50
24260;DHT22;12384;48.112;18.418;2023-03-14T04:59:40;7.10;50.50
24260;DHT22;12384;48.112;18.418;2023-03-14T05:02:30;7.10;50.50
24260;DHT22;12384;48.112;18.418;2023-03-14T05:05:18;7.10;50.60
24260;DHT22;12384;48.112;18.418;2023-03-14T05:08:07;7.10;50.60
24260;DHT22;12384;48.112;18.418;2023-03-14T05:10:42;7.10;50.70
24260;DHT22;12384;48.112;18.418;2023-03-14T05:13:31;7.10;50.70
24260;DHT22;12384;48.112;18.418;2023-03-14T05:16:19;7.10;50.70
24260;DHT22;12384;48.112;18.418;2023-03-14T05:18:59;7.10;50.80
24260;DHT22;12384;48.112;18.418;2023-03-14T05:21:34;7.10;50.90
24260;DHT22;12384;48.112;18.418;2023-03-14T05:24:23;7.10;51.00
24260;DHT22;12384;48.112;18.418;2023-03-14T05:26:51;7.10;51.10
24260;DHT22;12384;48.112;18.418;2023-03-14T05:29:43;7.10;51.20
24260;DHT22;12384;48.112;18.418;2023-03-14T05:32:32;7.20;51.30
24260;DHT22;12384;48.112;18.418;2023-03-14T05:35:21;7.20;51.40
24260;DHT22;12384;48.112;18.418;2023-03-14T05:38:10;7.30;51.40
24260;DHT22;12384;48.112;18.418;2023-03-14T05:40:54;7.30;51.60
24260;DHT22;12384;48.112;18.418;2023-03-14T05:43:48;7.40;51.70
24260;DHT22;12384;48.112;18.418;2023-03-14T05:46:43;7.40;52.00
24260;DHT22;12384;48.112;18.418;2023-03-14T05:49:28;7.50;52.10
24260;DHT22;12384;48.112;18.418;2023-03-14T05:51:58;7.50;52.20
24260;DHT22;12384;48.112;18.418;2023-03-14T05:54:53;7.60;52.50
24260;DHT22;12384;48.112;18.418;2023-03-14T05:57:42;7.70;52.50
24260;DHT22;12384;48.112;18.418;2023-03-14T06:00:18;7.70;52.40
24260;DHT22;12384;48.112;18.418;2023-03-14T06:02:56;7.80;52.30
24260;DHT22;12384;48.112;18.418;2023-03-14T06:05:30;7.80;52.20
24260;DHT22;12384;48.112;18.418;2023-03-14T06:08:02;7.80;52.10
24260;DHT22;12384;48.112;18.418;2023-03-14T06:10:31;7.80;52.10
24260;DHT22;12384;48.112;18.418;2023-03-14T06:13:00;7.90;52.20
24260;DHT22;12384;48.112;18.418;2023-03-14T06:15:31;7.90;52.20
24260;DHT22;12384;48.112;18.418;2023-03-14T06:18:00;8.00;52.20
24260;DHT22;12384;48.112;18.418;2023-03-14T06:20:28;8.00;52.30
24260;DHT22;12384;48.112;18.418;2023-03-14T06:22:57;8.10;52.50
24260;DHT22;12384;48.112;18.418;2023-03-14T06:25:27;8.10;52.50
24260;DHT22;12384;48.112;18.418;2023-03-14T06:27:55;8.20;52.50
24260;DHT22;12384;48.112;18.418;2023-03-14T06:30:24;8.30;52.60
24260;DHT22;12384;48.112;18.418;2023-03-14T06:32:53;8.40;52.60
24260;DHT22;12384;48.112;18.418;2023-03-14T06:35:23;8.50;52.60
24260;DHT22;12384;48.112;18.418;2023-03-14T06:37:51;8.60;52.60
24260;DHT22;12384;48.112;18.418;2023-03-14T06:40:20;8.70;52.50
24260;DHT22;12384;48.112;18.418;2023-03-14T06:43:05;8.80;52.50
24260;DHT22;12384;48.112;18.418;2023-03-14T06:45:35;8.90;52.50
24260;DHT22;12384;48.112;18.418;2023-03-14T06:48:05;9.00;52.50
24260;DHT22;12384;48.112;18.418;2023-03-14T06:50:39;9.10;52.40
24260;DHT22;12384;48.112;18.418;2023-03-14T06:53:08;9.20;52.40
24260;DHT22;12384;48.112;18.418;2023-03-14T06:55:40;9.30;52.40
24260;DHT22;12384;48.112;18.418;2023-03-14T06:58:11;9.40;52.30
24260;DHT22;12384;48.112;18.418;2023-03-14T07:00:43;9.40;52.20
24260;DHT22;12384;48.112;18.418;2023-03-14T07:03:15;9.50;52.20
24260;DHT22;12384;48.112;18.418;2023-03-14T07:05:48;9.60;52.20
24260;DHT22;12384;48.112;18.418;2023-03-14T07:08:16;9.70;52.10
24260;DHT22;12384;48.112;18.418;2023-03-14T07:10:45;9.80;52.10
24260;DHT22;12384;48.112;18.418;2023-03-14T07:13:15;9.90;52.00
24260;DHT22;12384;48.112;18.418;2023-03-14T07:15:50;10.00;51.00
24260;DHT22;12384;48.112;18.418;2023-03-14T07:18:20;10.10;51.10
24260;DHT22;12384;48.112;18.418;2023-03-14T07:20:49;10.20;50.90
24260;DHT22;12384;48.112;18.418;2023-03-14T07:23:19;10.30;50.90
24260;DHT22;12384;48.112;18.418;2023-03-14T07:25:49;10.50;50.90
24260;DHT22;12384;48.112;18.418;2023-03-14T07:28:21;10.60;50.80
24260;DHT22;12384;48.112;18.418;2023-03-14T07:30:57;10.80;50.80
24260;DHT22;12384;48.112;18.418;2023-03-14T07:33:31;11.00;50.40
24260;DHT22;12384;48.112;18.418;2023-03-14T07:36:01;11.20;50.80
24260;DHT22;12384;48.112;18.418;2023-03-14T07:38:30;11.60;50.80
24260;DHT22;12384;48.112;18.418;2023-03-14T07:41:11;11.90;50.20
24260;DHT22;12384;48.112;18.418;2023-03-14T07:43:48;12.40;50.50
24260;DHT22;12384;48.112;18.418;2023-03-14T07:46:16;12.80;49.80
24260;DHT22;12384;48.112;18.418;2023-03-14T07:48:45;13.20;50.30
24260;DHT22;12384;48.112;18.418;2023-03-14T07:51:14;13.70;49.80
24260;DHT22;12384;48.112;18.418;2023-03-14T07:53:42;14.20;49.10
24260;DHT22;12384;48.112;18.418;2023-03-14T07:56:11;14.50;48.00
24260;DHT22;12384;48.112;18.418;2023-03-14T07:58:39;14.80;47.50
24260;DHT22;12384;48.112;18.418;2023-03-14T08:01:09;15.00;46.90
24260;DHT22;12384;48.112;18.418;2023-03-14T08:03:38;15.30;46.70
24260;DHT22;12384;48.112;18.418;2023-03-14T08:06:06;15.40;46.40
24260;DHT22;12384;48.112;18.418;2023-03-14T08:08:35;15.60;46.40
24260;DHT22;12384;48.112;18.418;2023-03-14T08:11:18;15.80;46.50
24260;DHT22;12384;48.112;18.418;2023-03-14T08:13:46;16.20;46.20
24260;DHT22;12384;48.112;18.418;2023-03-14T08:16:18;16.60;46.80
24260;DHT22;12384;48.112;18.418;2023-03-14T08:18:47;17.20;46.80
24260;DHT22;12384;48.112;18.418;2023-03-14T08:21:15;17.80;46.40
24260;DHT22;12384;48.112;18.418;2023-03-14T08:23:44;18.20;45.10
24260;DHT22;12384;48.112;18.418;2023-03-14T08:26:12;18.30;43.80
24260;DHT22;12384;48.112;18.418;2023-03-14T08:28:41;18.40;43.70
24260;DHT22;12384;48.112;18.418;2023-03-14T08:31:09;18.30;43.10
24260;DHT22;12384;48.112;18.418;2023-03-14T08:33:39;18.20;43.40
24260;DHT22;12384;48.112;18.418;2023-03-14T08:36:08;18.10;41.80
24260;DHT22;12384;48.112;18.418;2023-03-14T08:38:37;17.90;41.60
24260;DHT22;12384;48.112;18.418;2023-03-14T08:41:06;17.80;41.50
24260;DHT22;12384;48.112;18.418;2023-03-14T08:43:34;17.70;41.40
24260;DHT22;12384;48.112;18.418;2023-03-14T08:46:03;17.70;42.30
24260;DHT22;12384;48.112;18.418;2023-03-14T08:48:32;17.80;41.60
24260;DHT22;12384;48.112;18.418;2023-03-14T08:51:06;17.90;41.60
24260;DHT22;12384;48.112;18.418;2023-03-14T08:53:34;18.20;42.10
24260;DHT22;12384;48.112;18.418;2023-03-14T08:56:03;18.50;42.60
24260;DHT22;12384;48.112;18.418;2023-03-14T08:58:33;19.00;42.70
24260;DHT22;12384;48.112;18.418;2023-03-14T09:01:02;19.50;42.10
24260;DHT22;12384;48.112;18.418;2023-03-14T09:03:31;20.20;42.20
24260;DHT22;12384;48.112;18.418;2023-03-14T09:06:02;20.90;40.60
24260;DHT22;12384;48.112;18.418;2023-03-14T09:08:33;21.50;39.80
24260;DHT22;12384;48.112;18.418;2023-03-14T09:11:07;22.30;40.00
24260;DHT22;12384;48.112;18.418;2023-03-14T09:13:36;23.00;39.20
24260;DHT22;12384;48.112;18.418;2023-03-14T09:16:06;23.70;37.70
24260;DHT22;12384;48.112;18.418;2023-03-14T09:18:35;24.00;36.10
24260;DHT22;12384;48.112;18.418;2023-03-14T09:21:04;24.40;34.80
24260;DHT22;12384;48.112;18.418;2023-03-14T09:23:34;24.50;34.30
24260;DHT22;12384;48.112;18.418;2023-03-14T09:26:02;24.70;34.40
24260;DHT22;12384;48.112;18.418;2023-03-14T09:28:31;25.00;34.60
24260;DHT22;12384;48.112;18.418;2023-03-14T09:31:05;25.10;33.40
24260;DHT22;12384;48.112;18.418;2023-03-14T09:33:35;25.40;33.20
24260;DHT22;12384;48.112;18.418;2023-03-14T09:36:04;25.40;31.40
24260;DHT22;12384;48.112;18.418;2023-03-14T09:38:34;25.40;31.10
24260;DHT22;12384;48.112;18.418;2023-03-14T09:41:13;25.40;31.30
24260;DHT22;12384;48.112;18.418;2023-03-14T09:43:44;25.40;30.30
24260;DHT22;12384;48.112;18.418;2023-03-14T09:46:14;25.20;30.60
24260;DHT22;12384;48.112;18.418;2023-03-14T09:48:44;24.90;30.50
24260;DHT22;12384;48.112;18.418;2023-03-14T09:51:16;24.50;30.30
24260;DHT22;12384;48.112;18.418;2023-03-14T09:53:50;23.90;30.20
24260;DHT22;12384;48.112;18.418;2023-03-14T09:56:20;23.30;30.70
24260;DHT22;12384;48.112;18.418;2023-03-14T09:58:52;22.70;31.10
24260;DHT22;12384;48.112;18.418;2023-03-14T10:01:25;22.00;31.80
24260;DHT22;12384;48.112;18.418;2023-03-14T10:04:00;21.50;32.50
24260;DHT22;12384;48.112;18.418;2023-03-14T10:06:31;21.00;32.90
24260;DHT22;12384;48.112;18.418;2023-03-14T10:09:01;20.50;33.80
24260;DHT22;12384;48.112;18.418;2023-03-14T10:11:30;20.10;34.30
24260;DHT22;12384;48.112;18.418;2023-03-14T10:14:05;19.80;34.80
24260;DHT22;12384;48.112;18.418;2023-03-14T10:16:36;19.50;35.20
24260;DHT22;12384;48.112;18.418;2023-03-14T10:19:07;19.20;35.80
24260;DHT22;12384;48.112;18.418;2023-03-14T10:21:38;19.00;36.10
24260;DHT22;12384;48.112;18.418;2023-03-14T10:24:18;18.80;37.10
24260;DHT22;12384;48.112;18.418;2023-03-14T10:26:49;18.70;37.10
24260;DHT22;12384;48.112;18.418;2023-03-14T10:29:18;18.60;37.40
24260;DHT22;12384;48.112;18.418;2023-03-14T10:31:52;18.60;37.50
24260;DHT22;12384;48.112;18.418;2023-03-14T10:34:24;18.60;37.80
24260;DHT22;12384;48.112;18.418;2023-03-14T10:36:55;18.50;37.70
24260;DHT22;12384;48.112;18.418;2023-03-14T10:39:40;18.50;37.90
24260;DHT22;12384;48.112;18.418;2023-03-14T10:42:19;18.50;37.80
24260;DHT22;12384;48.112;18.418;2023-03-14T10:44:53;18.50;38.00
24260;DHT22;12384;48.112;18.418;2023-03-14T10:47:24;18.50;38.10
24260;DHT22;12384;48.112;18.418;2023-03-14T10:49:56;18.40;38.00
24260;DHT22;12384;48.112;18.418;2023-03-14T10:52:27;18.40;38.20
24260;DHT22;12384;48.112;18.418;2023-03-14T10:55:09;18.40;38.20
24260;DHT22;12384;48.112;18.418;2023-03-14T10:57:38;18.40;38.20
24260;DHT22;12384;48.112;18.418;2023-03-14T11:00:14;18.30;38.20
24260;DHT22;12384;48.112;18.418;2023-03-14T11:03:03;18.20;38.30
24260;DHT22;12384;48.112;18.418;2023-03-14T11:05:40;18.10;38.30
24260;DHT22;12384;48.112;18.418;2023-03-14T11:08:12;18.00;38.50
24260;DHT22;12384;48.112;18.418;2023-03-14T11:10:47;17.90;38.60
24260;DHT22;12384;48.112;18.418;2023-03-14T11:13:21;17.80;38.90
24260;DHT22;12384;48.112;18.418;2023-03-14T11:15:58;17.70;39.10
24260;DHT22;12384;48.112;18.418;2023-03-14T11:21:37;17.60;39.90
24260;DHT22;12384;48.112;18.418;2023-03-14T11:24:23;17.60;40.20
24260;DHT22;12384;48.112;18.418;2023-03-14T11:26:59;17.70;40.40
24260;DHT22;12384;48.112;18.418;2023-03-14T11:29:39;17.80;40.50
24260;DHT22;12384;48.112;18.418;2023-03-14T11:32:13;17.90;40.50
24260;DHT22;12384;48.112;18.418;2023-03-14T11:34:48;18.10;40.60
24260;DHT22;12384;48.112;18.418;2023-03-14T11:37:24;18.20;40.40
24260;DHT22;12384;48.112;18.418;2023-03-14T11:40:00;18.30;40.10
24260;DHT22;12384;48.112;18.418;2023-03-14T11:42:33;18.20;40.00
24260;DHT22;12384;48.112;18.418;2023-03-14T11:45:02;18.10;40.00
24260;DHT22;12384;48.112;18.418;2023-03-14T11:47:36;18.00;40.20
24260;DHT22;12384;48.112;18.418;2023-03-14T11:50:14;17.90;40.60
24260;DHT22;12384;48.112;18.418;2023-03-14T11:52:47;17.80;40.80
24260;DHT22;12384;48.112;18.418;2023-03-14T11:55:22;17.80;41.20
24260;DHT22;12384;48.112;18.418;2023-03-14T11:57:58;17.80;41.20
24260;DHT22;12384;48.112;18.418;2023-03-14T12:00:29;17.80;41.50
24260;DHT22;12384;48.112;18.418;2023-03-14T12:03:04;17.90;41.60
24260;DHT22;12384;48.112;18.418;2023-03-14T12:05:42;17.90;41.60
24260;DHT22;12384;48.112;18.418;2023-03-14T12:08:29;17.90;41.60
24260;DHT22;12384;48.112;18.418;2023-03-14T12:11:04;18.00;41.50
24260;DHT22;12384;48.112;18.418;2023-03-14T12:13:37;17.90;41.20
24260;DHT22;12384;48.112;18.418;2023-03-14T12:16:09;17.80;41.30
24260;DHT22;12384;48.112;18.418;2023-03-14T12:18:48;17.70;41.30
24260;DHT22;12384;48.112;18.418;2023-03-14T12:21:16;17.60;41.50
24260;DHT22;12384;48.112;18.418;2023-03-14T12:23:49;17.60;41.90
24260;DHT22;12384;48.112;18.418;2023-03-14T12:26:20;17.60;42.20
24260;DHT22;12384;48.112;18.418;2023-03-14T12:28:52;17.60;42.40
24260;DHT22;12384;48.112;18.418;2023-03-14T12:31:37;17.60;42.70
24260;DHT22;12384;48.112;18.418;2023-03-14T12:34:31;17.70;43.40
24260;DHT22;12384;48.112;18.418;2023-03-14T12:37:09;17.80;43.80
24260;DHT22;12384;48.112;18.418;2023-03-14T12:39:45;17.80;43.70
24260;DHT22;12384;48.112;18.418;2023-03-14T12:42:21;17.90;43.80
24260;DHT22;12384;48.112;18.418;2023-03-14T12:45:23;18.00;44.00
24260;DHT22;12384;48.112;18.418;2023-03-14T12:48:08;18.10;43.80
24260;DHT22;12384;48.112;18.418;2023-03-14T12:50:43;18.10;43.60
24260;DHT22;12384;48.112;18.418;2023-03-14T12:56:36;18.20;42.90
24260;DHT22;12384;48.112;18.418;2023-03-14T12:59:29;18.20;42.70
24260;DHT22;12384;48.112;18.418;2023-03-14T13:02:12;18.20;42.70
24260;DHT22;12384;48.112;18.418;2023-03-14T13:04:48;18.30;42.90
24260;DHT22;12384;48.112;18.418;2023-03-14T13:07:36;18.30;42.90
24260;DHT22;12384;48.112;18.418;2023-03-14T13:10:25;18.30;42.90
24260;DHT22;12384;48.112;18.418;2023-03-14T13:12:55;18.30;42.70
24260;DHT22;12384;48.112;18.418;2023-03-14T13:15:29;18.30;42.50
24260;DHT22;12384;48.112;18.418;2023-03-14T13:18:03;18.30;42.10
24260;DHT22;12384;48.112;18.418;2023-03-14T13:20:40;18.40;42.20
24260;DHT22;12384;48.112;18.418;2023-03-14T13:23:20;18.30;42.20
24260;DHT22;12384;48.112;18.418;2023-03-14T13:25:49;18.40;42.20
24260;DHT22;12384;48.112;18.418;2023-03-14T13:28:18;18.30;42.00
24260;DHT22;12384;48.112;18.418;2023-03-14T13:30:49;18.40;42.30
24260;DHT22;12384;48.112;18.418;2023-03-14T13:33:21;18.30;42.30
24260;DHT22;12384;48.112;18.418;2023-03-14T13:35:54;18.20;42.40
24260;DHT22;12384;48.112;18.418;2023-03-14T13:38:25;18.10;42.40
24260;DHT22;12384;48.112;18.418;2023-03-14T13:40:55;18.10;42.90
24260;DHT22;12384;48.112;18.418;2023-03-14T13:43:29;18.00;43.20
24260;DHT22;12384;48.112;18.418;2023-03-14T13:46:03;17.80;43.60
24260;DHT22;12384;48.112;18.418;2023-03-14T13:48:38;17.70;44.20
24260;DHT22;12384;48.112;18.418;2023-03-14T13:51:12;17.70;44.40
24260;DHT22;12384;48.112;18.418;2023-03-14T13:53:45;17.60;45.50
24260;DHT22;12384;48.112;18.418;2023-03-14T13:56:14;17.40;45.80
24260;DHT22;12384;48.112;18.418;2023-03-14T13:58:42;17.30;46.30
24260;DHT22;12384;48.112;18.418;2023-03-14T14:01:14;17.10;46.80
24260;DHT22;12384;48.112;18.418;2023-03-14T14:03:48;17.00;48.00
24260;DHT22;12384;48.112;18.418;2023-03-14T14:06:30;16.70;47.90
24260;DHT22;12384;48.112;18.418;2023-03-14T14:09:01;16.50;48.80
24260;DHT22;12384;48.112;18.418;2023-03-14T14:11:43;16.40;49.20
24260;DHT22;12384;48.112;18.418;2023-03-14T14:14:33;16.20;49.90
24260;DHT22;12384;48.112;18.418;2023-03-14T14:17:05;16.00;49.90
24260;DHT22;12384;48.112;18.418;2023-03-14T14:19:39;15.80;51.00
24260;DHT22;12384;48.112;18.418;2023-03-14T14:22:09;15.70;51.00
24260;DHT22;12384;48.112;18.418;2023-03-14T14:24:38;15.60;51.10
24260;DHT22;12384;48.112;18.418;2023-03-14T14:27:12;15.50;51.60
24260;DHT22;12384;48.112;18.418;2023-03-14T14:29:41;15.40;51.80
24260;DHT22;12384;48.112;18.418;2023-03-14T14:32:12;15.30;52.40
24260;DHT22;12384;48.112;18.418;2023-03-14T14:34:44;15.30;52.70
24260;DHT22;12384;48.112;18.418;2023-03-14T14:37:21;15.20;53.60
24260;DHT22;12384;48.112;18.418;2023-03-14T14:39:56;15.10;53.20
24260;DHT22;12384;48.112;18.418;2023-03-14T14:42:27;15.10;52.90
24260;DHT22;12384;48.112;18.418;2023-03-14T14:44:58;15.00;52.60
24260;DHT22;12384;48.112;18.418;2023-03-14T14:47:29;15.00;52.60
24260;DHT22;12384;48.112;18.418;2023-03-14T14:50:04;14.90;52.70
24260;DHT22;12384;48.112;18.418;2023-03-14T14:52:37;14.80;52.80
24260;DHT22;12384;48.112;18.418;2023-03-14T14:55:13;14.60;52.80
24260;DHT22;12384;48.112;18.418;2023-03-14T14:57:49;14.50;52.70
24260;DHT22;12384;48.112;18.418;2023-03-14T15:00:21;14.40;52.80
24260;DHT22;12384;48.112;18.418;2023-03-14T15:02:51;14.20;52.90
24260;DHT22;12384;48.112;18.418;2023-03-14T15:05:24;14.10;53.00
24260;DHT22;12384;48.112;18.418;2023-03-14T15:07:53;14.00;53.30
24260;DHT22;12384;48.112;18.418;2023-03-14T15:10:23;13.90;53.40
24260;DHT22;12384;48.112;18.418;2023-03-14T15:12:53;13.80;53.60
24260;DHT22;12384;48.112;18.418;2023-03-14T15:15:21;13.70;53.70
24260;DHT22;12384;48.112;18.418;2023-03-14T15:17:50;13.60;53.90
24260;DHT22;12384;48.112;18.418;2023-03-14T15:20:18;13.60;54.10
24260;DHT22;12384;48.112;18.418;2023-03-14T15:22:52;13.50;54.20
24260;DHT22;12384;48.112;18.418;2023-03-14T15:25:20;13.40;54.40
24260;DHT22;12384;48.112;18.418;2023-03-14T15:28:14;13.30;54.50
24260;DHT22;12384;48.112;18.418;2023-03-14T15:30:47;13.20;54.70
24260;DHT22;12384;48.112;18.418;2023-03-14T15:33:15;13.10;54.80
24260;DHT22;12384;48.112;18.418;2023-03-14T15:35:44;13.10;55.10
24260;DHT22;12384;48.112;18.418;2023-03-14T15:38:17;13.00;55.20
24260;DHT22;12384;48.112;18.418;2023-03-14T15:40:48;12.90;55.40
24260;DHT22;12384;48.112;18.418;2023-03-14T15:43:17;12.90;55.50
24260;DHT22;12384;48.112;18.418;2023-03-14T15:45:46;12.80;55.70
24260;DHT22;12384;48.112;18.418;2023-03-14T15:48:16;12.70;55.80
24260;DHT22;12384;48.112;18.418;2023-03-14T15:50:45;12.70;56.00
24260;DHT22;12384;48.112;18.418;2023-03-14T15:53:15;12.60;56.20
24260;DHT22;12384;48.112;18.418;2023-03-14T15:55:44;12.60;56.30
24260;DHT22;12384;48.112;18.418;2023-03-14T15:58:16;12.50;56.40
24260;DHT22;12384;48.112;18.418;2023-03-14T16:00:48;12.50;56.60
24260;DHT22;12384;48.112;18.418;2023-03-14T16:03:17;12.40;56.60
24260;DHT22;12384;48.112;18.418;2023-03-14T16:05:46;12.40;56.80
24260;DHT22;12384;48.112;18.418;2023-03-14T16:08:16;12.30;56.80
24260;DHT22;12384;48.112;18.418;2023-03-14T16:10:45;12.30;57.10